Bossangoa, Central African Republic
Current Conditions -  °F | °C
As of 9:00 PM on Tuesday 21 Oct 2014 (Local Time) from FEFF Reporting Station
Broken Clouds Broken Clouds  
Wind Chill: 72°   Ceiling: 15000
Heat Index: 72°   Visibility: 5mi
Dew Point: 72°   Wind: 2mph
Humidity: 100%   Direction: NA
Pressure: 29.94"   Gusts: NA
Location:  6.5°N, 17.46°E
Report Text: FEFF 212000Z VRB02KT 8000 SCT010 BKN150 22/22 Q1014 NOSIG
Loading
Personal Weather Stations






























Interactive Weather Map
Tropical Storm Tracking
New forecast layout! Learn more

10-Day Weather Forecast

Advertisements
Track Severe Weather on mobile